KFHRCYCD

Guest
Details From KFHR - FRIDAY HARBOR
To CYCD - Nanaimo
Flight Number -
Tags generated
Created
Modified
Stats Distance 46 nm / 86 km
Max Altitude 2,600 ft / 792 m
Waypoints 3
Social Downloads 0
Likes 0
Share VATSIM

Download

Looking for another format? Having issues loading an existing format? Contact us
Advertisement - Login to hide

Notes

Basic altitude profile: - Ascent Rate: 2500ft/min - Ascent Speed: 250kts - Cruise Altitude: 35000ft - Cruise Speed: 420kts - Descent Rate: 1500ft/min - Descent Speed: 250kts Options: - Use NATs: yes - Use PACOTS: yes - Use low airways: yes - Use high airways: yes

Route

KFHR IMPOR CYCD

ID Type Via Altitude (ft/m) Position (lat/lon) Dist (leg/tot) Name
O KFHR APT - 0 / 0 48.52197 / -123.02437 - / 0 nm FRIDAY HARBOR
IMPOR FIX - 2,600 / 792 48.62794 / -123.12540 7 / 7 nm
O CYCD APT - 0 / 0 49.05237 / -123.87011 38 / 46 nm Nanaimo

Altitude Profile

Advertisement - Login to hide

KFHR

Details ICAO KFHR (FRD)
Name FRIDAY HARBOR
Region United States
Timezone America/Los_Angeles (UTC-7.0)
Stats Elevation 113 ft / 34 m (AMSL)
Location 48.522000° -123.024000°
Runways 1
Magnetic Variation 15.947° E

METAR

KFHR 160453Z AUTO 30003KT 10SM CLR 09/04 A3033 RMK AO2 SLP272 T00940044

Decode

TAF

Not found

Departure Runways

ID Width Length Bearing (true/mag) Surface Threshold Overrun Markings Lighting
16 75 ft / 23 m 3,402 ft / 1,037 m 177.06° / 161.11° ASPHALT 0 ft / 0 m 0 ft / 0 m VISUAL EDGE THRESHOLD
34 75 ft / 23 m 3,402 ft / 1,037 m 357.06° / 341.11° ASPHALT 0 ft / 0 m 0 ft / 0 m VISUAL EDGE THRESHOLD REIL-OMNI

CYCD

Details ICAO CYCD (YCD)
Name Nanaimo
Region Canada
Timezone America/Vancouver (UTC-7.0)
Stats Elevation 90 ft / 27 m (AMSL)
Location 49.054600° -123.870000°
Runways 1
Magnetic Variation 16.213° E

METAR

CYCD 160400Z 00000KT 20SM SKC 07/06 A3033 RMK LAST STFD OBS/NEXT 161300Z SLP272

Decode

TAF

TAF CYCD 152339Z 1600/1604 36005KT P6SM FEW230 RMK NXT FCST WILL BE ISSUED AT 161445Z

Decode

Destination Runways

ID Width Length Bearing (true/mag) Surface Threshold Overrun Markings Lighting
16 150 ft / 46 m 6,602 ft / 2,012 m 180.86° / 164.64° ASPHALT 197 ft / 60 m 0 ft / 0 m APP EDGE THRESHOLD ODALS
34 150 ft / 46 m 6,602 ft / 2,012 m 0.86° / 344.64° ASPHALT 997 ft / 304 m 0 ft / 0 m APP EDGE THRESHOLD

Approach Navaids

Runway Type Ident Frequency Range Bearing (true/mag) Slope Elevation
16 LOC-ILS ICD 110.35 MHz 18 nm / 33 km 180.86° / 164.65 ° - 90 ft / 27 m (AMSL)
16 GS ICD 110.35 MHz 10 nm / 19 km 180.86° / 164.65 ° 3.00° 90 ft / 27 m (AMSL)